W. A. Kernan — WDD4377 — position and weather

sailwx.info

Track history (hours):
 
Tides and Currents Weather Stations Pressure Air Temp Water Temp Dewpoint Dewpoint Depression Visibility Wind Speed Wind Dir Waves Ship Positions

W. A. Kernan

Owner: American Commercial Lines LLC, Jeffersonville, IN. More information available from US FCC via Universal Licensing System and Coast Guard Vessel Documentation Center.

Last reported at 2015-Jun-28 04:07 UTC. Time now 2015-Jun-30 08:22 UTC.
Position N 38°56' W 084°52'.

Length 45 m; draft 2.9 m.

MMSI: 367143920.

Date/timePositionNaut miles runAvg speedWind from/ knotsBaromVisibWave heightAir tempDewpointWater temp
2015-Jun-28 04:07N 38°56' W 084°52'9 5.3
2015-Jun-28 02:30N 39°04' W 084°52'6 6.1
2015-Jun-28 01:33N 39°08' W 084°46'5 5.2
2015-Jun-28 00:32N 39°06' W 084°40'2 2.2
2015-Jun-27 23:33N 39°05' W 084°38'0 0.0
2015-Jun-27 22:32N 39°05' W 084°38'0 0.1
2015-Jun-27 21:33N 39°05' W 084°38'6 5.6
2015-Jun-27 20:33N 39°06' W 084°31'4 3.7
2015-Jun-27 19:33N 39°05' W 084°26'5 5.0
2015-Jun-27 18:33N 39°02' W 084°20'5 5.3
2015-Jun-27 17:33N 38°57' W 084°17'6 5.6
2015-Jun-27 16:31N 38°52' W 084°14'5 3.7
2015-Jun-27 15:08N 38°48' W 084°10'1 1.0
2015-Jun-27 14:08N 38°48' W 084°09'14 4.6
2015-Jun-27 11:08N 38°45' W 083°51'  
2015-Jun-19 14:16N 38°35' W 082°13'20 3.4
2015-Jun-19 08:20N 38°24' W 082°34'54 2.3
2015-Jun-18 09:22N 38°38' W 083°41'3 3.8
2015-Jun-18 08:27N 38°39' W 083°45'3 3.7
2015-Jun-18 07:30N 38°42' W 083°47'4 3.7
2015-Jun-18 06:30N 38°44' W 083°51'4 4.0
2015-Jun-18 05:30N 38°46' W 083°55'5 4.1
2015-Jun-18 04:17N 38°46' W 084°02'  
Track history (hours):
 
Tides and Currents Weather Stations Pressure Air Temp Water Temp Dewpoint Dewpoint Depression Visibility Wind Speed Wind Dir Waves Ship Positions

W. A. Kernan

Owner: American Commercial Lines LLC, Jeffersonville, IN. More information available from US FCC via Universal Licensing System and Coast Guard Vessel Documentation Center.

Last reported at 2015-Jun-28 04:07 UTC. Time now 2015-Jun-30 08:22 UTC.
Position N 38°56' W 084°52'.

Length 45 m; draft 2.9 m.

MMSI: 367143920.

Date/timePositionNaut miles runAvg speedWind from/ knotsBaromVisibWave heightAir tempDewpointWater temp
2015-Jun-28 04:07N 38°56' W 084°52'9 5.3
2015-Jun-28 02:30N 39°04' W 084°52'6 6.1
2015-Jun-28 01:33N 39°08' W 084°46'5 5.2
2015-Jun-28 00:32N 39°06' W 084°40'2 2.2
2015-Jun-27 23:33N 39°05' W 084°38'0 0.0
2015-Jun-27 22:32N 39°05' W 084°38'0 0.1
2015-Jun-27 21:33N 39°05' W 084°38'6 5.6
2015-Jun-27 20:33N 39°06' W 084°31'4 3.7
2015-Jun-27 19:33N 39°05' W 084°26'5 5.0
2015-Jun-27 18:33N 39°02' W 084°20'5 5.3
2015-Jun-27 17:33N 38°57' W 084°17'6 5.6
2015-Jun-27 16:31N 38°52' W 084°14'5 3.7
2015-Jun-27 15:08N 38°48' W 084°10'1 1.0
2015-Jun-27 14:08N 38°48' W 084°09'14 4.6
2015-Jun-27 11:08N 38°45' W 083°51'  
2015-Jun-19 14:16N 38°35' W 082°13'20 3.4
2015-Jun-19 08:20N 38°24' W 082°34'54 2.3
2015-Jun-18 09:22N 38°38' W 083°41'3 3.8
2015-Jun-18 08:27N 38°39' W 083°45'3 3.7
2015-Jun-18 07:30N 38°42' W 083°47'4 3.7
2015-Jun-18 06:30N 38°44' W 083°51'4 4.0
2015-Jun-18 05:30N 38°46' W 083°55'5 4.1
2015-Jun-18 04:17N 38°46' W 084°02'  

Dump ship's entire track history